Share

Athol, KS

6:02 AM CDT on April 24, 2014 (GMT -0500)
Near 14th and K (KNEFRANK2) Elev 1850 ft | 40.09 °N, 98.95 °W | Change Station

Current weather conditions updated 2 minutes ago

Overcast
Overcast
53.2 °F
Feels Like 53.2 °F
N
1.6
Wind Variable Wind from ENE
Gusts 1.6 mph
Sunrise 6:45 AM
Sunset 8:22 PM
Moon Waning Crescent

Today is forecast to be Much Cooler than yesterday.

Pressure 29.76 in
Visibility 10.0 miles
Clouds Overcast 9000 ft
Dew Point 44 °F
Humidity 70%
Rainfall 0.00 in
Snow Depth Not available.
UV 0 out of 16
Pollen 11.20 out of 12
Air Quality Not available.
Flu Activity No Activity
METAR KHDE 241055Z AUTO 32013KT 10SM OVC090 10/06 A2976 RMK AO2 T01020059

More Conditions Fewer Conditions

Pressure 29.76 in
Visibility 10.0 miles
Clouds Overcast 9000 ft
Dew Point 44 °F
Humidity 70%
Rainfall 0.00 in
Snow Depth Not available.
UV 0 out of 16
Pollen 11.20 out of 12
Air Quality Not available.
Flu Activity No Activity
METAR KHDE 241055Z AUTO 32013KT 10SM OVC090 10/06 A2976 RMK AO2 T01020059

More Conditions Fewer Conditions

10-Day Weather Forecast

Almanac

Astronomy

Apr. 24, 2014 Rise Set
Actual Time 6:45 AM CDT 8:22 PM CDT
Civil Twilight 6:16 AM CDT 8:51 PM CDT
Nautical Twilight 5:42 AM CDT 9:26 PM CDT
Astronomical Twilight 5:05 AM CDT 10:03 PM CDT
Moon 3:56 AM CDT 3:40 PM CDT
Length of Visible Light 14h 35m
Length of Day
13h 37m
Tomorrow will be 2m 22s longer.
Waning Crescent, 27% of the Moon is Illuminated
Today
Waning Crescent
Apr 29
New
May 6
First Quarter
May 14
Full
May 21
Last Quarter

Today's Extremes

State Highs State Lows

Community

  • Stacked
    Stacked
  • clouds approaching Red Sox Nation
    clouds approaching Red Sox Nation
  • Balance
    Balance
  • Nestled In
    Nestled In
  • Stunning Sunrise
    Stunning Sunrise

WunderPhotos

Upload Photos

1,704,584 photos uploaded!

WunderBlogs® & News

Nearby

Snow Depth

Station Depth Elevation
No new snow has been reported.

Coastal Water Temperatures

Place Temperature
No Stations Reporting

Earthquake Activity

City Distance Mag. Time & Date
No recent earthquake activity has been reported nearby.
Minimum magnitude displayed is 2.5.

Nearby Weather Stations

Station Location Temp. Dew Point Humidity Wind Precip. Elev Updated Type
RAWS KIRWIN KS, Kirwin, KS 53 °F 48 °F 82% NNW  at  7 mph 0.01 in / hr 1747 ft 4:56 AM CDT MADIS
Near 14th and K, Franklin, NE 53.2 °F 44 °F 70% ENE  at  1.6 mph 0.00 in / hr 1850 ft 5:59 AM CDT Rapid Fire
NonFedAWOS PHILLIPSBURG , Phillipsburg, KS 54 °F 45 °F 71% WNW  at  8 mph 0.00 in / hr 1906 ft 5:40 AM CDT MADIS
MesoWest PHILLIPSBURG , Phillipsburg, KS 54 °F 45 °F 71% North  at  10 mph 0.00 in / hr 1985 ft 4:00 AM CDT MADIS

Show More Stations Show Fewer Stations

What do you think?

We're not finished. Please let us know what you like, what you don't like, and what you are still missing.